Airfield :
LOGIN :

Register | Disclaimer

   EN    FR    IT 

 










Legend :    VFR   Marginal VFR   IFR   Intensive IFR   Very Intensive IFR
Visi :
Ceiling :
>= 8 km
>= 3000ft
5 to 8 km
1000 to 3000 ft
1500m to 5 km
500 to 1000 ft
800 to 1500m
200 to 500 ft
< 800m
< 200 ft
Symbols :   Thunderstorms  Fog  Heavy snow  Heavy precipitations  Wind > 20 kt
SIGMETs :     Misc.  Thunderstorms  Icing  Turbulence  Mountain Waves  Volcanic Ashes







- Airport Elevation : 466 ft


LHPA - Pápa

CURRENT METAR :
  • 232045Z 13006KT 9999 -RA FEW020 BKN060 11/06 Q1013 NOSIG RMK BLU

EXPIRED METARs :
  • 232015Z 12006KT 9999 -RA FEW020 BKN060 10/07 Q1013 NOSIG RMK BLU
  • 231945Z 10004KT 9999 -RA FEW020 BKN060 11/06 Q1013 NOSIG RMK BLU
  • 231940Z 11004KT 9999 -RA FEW020 BKN060 11/06 Q1013 RMK BLU
  • 231915Z 12008KT 070V150 9999 FEW020 BKN067 12/05 Q1013 TEMPO -RA RMK BLU
  • 231845Z 11008KT 9999 FEW020 BKN067 13/05 Q1013 TEMPO -RA SHRA RMK BLU

TAF TAF LHPA
Valid from the 23 at 18:00 until the 24 at 18:00 UTC


231715Z 2318/2418 12012KT 9999 SCT040 BKN080
TEMPO 2318/2406 13014G25KT
PROB40
TEMPO 2318/2324 8000 -RA SHRA SCT020 BKN040 BKN080
BECMG 2407/2410 17013KT SCT040
TEMPO 2410/2418 18015G26KT
PROB40
TEMPO 2414/2418 VRB18G30KT 6000 SHRA TSRA SCT030CB BKN045
No reported NOTAMs for that airfield.



MET'MAP, your aeronautical weather chart ! - Copyright ORBIFLY December 2007 - Disclaimer

ORBIFLY MET'MAP TEAM :

Programming & Development : Alexandra Zaïnal
Concept & Development : Baudouin d'Aumeries
Co-Development & Prog : Marc-Olivier Méhu
Technical & hardware support : Manuel Goepfert

Contact : metmap@orbifly.com




SOURCES & CREDITS :

   NOAA